Time;durP1;ratioP1;P1;durP2;ratioP2;P2;SDS_P1;SDS_P2;PMS_P1;PMS_P2;Temp;Humidity;BMP_temperature;BMP_pressure;BME280_temperature;BME280_humidity;BME280_pressure;Samples;Min_cycle;Max_cycle;Signal;HPM_P1;HPM_P2
2022/08/15 00:00:52;;;;;;;5.72;5.22;;;;;;;22.49;100.00;98239.09;4357270;32;20032;-68
2022/08/15 00:03:24;;;;;;;14.00;5.03;;;;;;;22.51;100.00;98235.22;4371888;32;20069;-72
2022/08/15 00:05:52;;;;;;;12.27;5.50;;;;;;;22.73;100.00;98248.37;4372841;32;20059;-70
2022/08/15 00:08:18;;;;;;;10.95;4.87;;;;;;;22.53;100.00;98213.69;4371902;32;20039;-70
2022/08/15 00:10:45;;;;;;;8.27;5.32;;;;;;;22.51;100.00;98207.78;4372797;32;20060;-69
2022/08/15 00:13:24;;;;;;;13.95;4.60;;;;;;;22.76;100.00;98247.69;4371629;32;20043;-71
2022/08/15 00:15:55;;;;;;;4.97;4.43;;;;;;;22.78;100.00;98234.41;4372681;32;20065;-69
2022/08/15 00:18:25;;;;;;;7.05;4.87;;;;;;;22.82;100.00;98240.78;4371872;32;20053;-69
2022/08/15 00:20:52;;;;;;;5.10;4.60;;;;;;;22.76;100.00;98242.19;4370896;32;20047;-70
2022/08/15 00:23:22;;;;;;;16.65;4.78;;;;;;;22.67;100.00;98238.78;4370602;32;20085;-70
2022/08/15 00:25:51;;;;;;;6.18;4.00;;;;;;;22.17;100.00;98204.44;4372351;32;20385;-69
2022/08/15 00:28:17;;;;;;;6.70;4.55;;;;;;;22.09;100.00;98209.69;4372185;32;20053;-69
2022/08/15 00:30:45;;;;;;;4.07;3.67;;;;;;;22.12;100.00;98241.91;4372708;32;20036;-70
2022/08/15 00:33:14;;;;;;;4.43;4.03;;;;;;;21.92;100.00;98199.00;4369834;32;20101;-70
2022/08/15 00:35:45;;;;;;;6.62;4.80;;;;;;;22.22;100.00;98239.84;4357365;32;20064;-69
2022/08/15 00:38:17;;;;;;;8.40;4.75;;;;;;;21.80;100.00;98185.34;4361914;32;20051;-69
2022/08/15 00:43:34;;;;;;;8.63;4.47;;;;;;;21.87;100.00;98196.50;4356474;32;20432;-69
2022/08/15 00:46:04;;;;;;;6.25;4.72;;;;;;;21.88;100.00;98195.37;4360272;32;20376;-69
2022/08/15 00:48:42;;;;;;;4.55;4.15;;;;;;;22.17;100.00;98242.81;4370322;32;20083;-70
2022/08/15 00:51:33;;;;;;;6.82;4.75;;;;;;;22.14;100.00;98245.09;4371897;32;20051;-69
2022/08/15 00:54:04;;;;;;;9.50;4.80;;;;;;;21.86;100.00;98178.44;4371729;32;20043;-68
2022/08/15 00:56:40;;;;;;;8.88;5.93;;;;;;;22.14;100.00;98238.81;4370822;32;20066;-69
2022/08/15 00:59:10;;;;;;;7.05;6.00;;;;;;;22.05;100.00;98236.22;4371666;32;20039;-70
2022/08/15 01:01:38;;;;;;;13.88;5.78;;;;;;;22.33;100.00;98235.50;4372156;32;20035;-70
2022/08/15 01:04:08;;;;;;;9.25;5.50;;;;;;;22.38;100.00;98231.72;4366750;32;20383;-71
2022/08/15 01:06:37;;;;;;;9.30;5.97;;;;;;;22.24;100.00;98234.78;4371939;32;20067;-70
2022/08/15 01:09:06;;;;;;;7.85;6.05;;;;;;;22.17;100.00;98231.84;4370095;32;20077;-70
2022/08/15 01:11:45;;;;;;;16.30;5.95;;;;;;;21.94;100.00;98188.50;4325333;33;20037;-70
2022/08/15 01:14:12;;;;;;;12.75;6.22;;;;;;;22.18;100.00;98230.69;4324822;33;20052;-70
2022/08/15 01:16:39;;;;;;;10.65;6.78;;;;;;;22.20;100.00;98225.69;4329035;33;20046;-70
2022/08/15 01:19:17;;;;;;;14.02;6.47;;;;;;;22.28;100.00;98227.47;4324981;33;20050;-70
2022/08/15 01:22:00;;;;;;;8.68;6.25;;;;;;;22.23;100.00;98228.53;4322948;33;20102;-70
2022/08/15 01:24:47;;;;;;;9.32;6.25;;;;;;;22.22;100.00;98228.88;4324733;33;20028;-70
2022/08/15 01:27:16;;;;;;;14.95;6.68;;;;;;;21.94;100.00;98183.81;4331161;33;20450;-71
2022/08/15 01:29:43;;;;;;;9.27;6.65;;;;;;;22.17;100.00;98226.38;4327715;33;20113;-70
2022/08/15 01:32:09;;;;;;;9.93;6.90;;;;;;;21.79;100.00;98172.78;4331435;33;20151;-71
2022/08/15 01:34:36;;;;;;;10.43;7.00;;;;;;;22.07;100.00;98211.19;4339139;33;20070;-70
2022/08/15 01:37:03;;;;;;;11.18;6.82;;;;;;;22.11;100.00;98223.06;4324723;33;20441;-70
2022/08/15 01:39:38;;;;;;;12.00;8.02;;;;;;;22.13;100.00;98216.09;4322878;33;20401;-71
2022/08/15 01:42:13;;;;;;;14.40;8.85;;;;;;;21.97;100.00;98233.59;4324738;33;20389;-70
2022/08/15 01:44:47;;;;;;;8.82;6.97;;;;;;;22.01;100.00;98224.34;4324954;33;20467;-70
2022/08/15 01:47:41;;;;;;;11.35;7.78;;;;;;;21.96;100.00;98199.91;4322882;33;20527;-70
2022/08/15 01:50:20;;;;;;;14.93;7.18;;;;;;;22.18;100.00;98217.81;4359334;32;20066;-70
2022/08/15 01:53:13;;;;;;;11.00;6.82;;;;;;;22.07;100.00;98178.31;4368759;32;20117;-70
2022/08/15 01:56:08;;;;;;;12.10;7.57;;;;;;;21.97;100.00;98173.28;4371751;32;20333;-70
2022/08/15 01:58:38;;;;;;;8.05;7.28;;;;;;;22.18;100.00;98189.56;4371346;32;20060;-69
2022/08/15 02:01:10;;;;;;;12.02;7.50;;;;;;;21.93;100.00;98162.22;4371356;32;20040;-70
2022/08/15 02:03:39;;;;;;;14.45;8.10;;;;;;;22.20;100.00;98204.53;4371111;32;20040;-71
2022/08/15 02:06:13;;;;;;;13.70;8.38;;;;;;;22.20;100.00;98201.00;4370062;32;20035;-69
2022/08/15 02:08:43;;;;;;;11.65;7.87;;;;;;;22.14;100.00;98201.22;4371185;32;20047;-69
2022/08/15 02:11:12;;;;;;;12.37;8.07;;;;;;;22.10;100.00;98192.13;4371338;32;20040;-69
2022/08/15 02:13:41;;;;;;;18.00;8.95;;;;;;;21.77;100.00;98159.41;4369229;32;20347;-72
2022/08/15 02:16:08;;;;;;;10.57;8.02;;;;;;;22.06;100.00;98193.94;4371215;32;20043;-69
2022/08/15 02:18:34;;;;;;;15.45;7.47;;;;;;;21.71;100.00;98141.63;4370472;32;20305;-69
2022/08/15 02:21:01;;;;;;;19.15;8.13;;;;;;;22.01;100.00;98191.44;4371086;32;20048;-70
2022/08/15 02:23:28;;;;;;;14.73;8.57;;;;;;;21.87;100.00;98180.06;4370982;32;20043;-69
2022/08/15 02:25:54;;;;;;;14.45;9.10;;;;;;;21.54;100.00;98156.34;4369534;32;20047;-71
2022/08/15 02:28:23;;;;;;;13.62;8.77;;;;;;;21.76;100.00;98175.06;4370330;32;20790;-69
2022/08/15 02:30:50;;;;;;;19.67;10.50;;;;;;;21.61;100.00;98189.44;4371316;32;20031;-70
2022/08/15 02:33:16;;;;;;;16.23;9.07;;;;;;;21.51;100.00;98189.94;4371182;32;20084;-69
2022/08/15 02:35:43;;;;;;;15.55;9.85;;;;;;;21.43;100.00;98153.25;4367971;32;20112;-71
2022/08/15 02:38:09;;;;;;;15.32;10.10;;;;;;;21.58;100.00;98157.28;4361604;32;20036;-69
2022/08/15 02:40:36;;;;;;;13.43;9.82;;;;;;;21.68;100.00;98134.09;4353045;33;20031;-68
2022/08/15 02:43:07;;;;;;;19.45;9.40;;;;;;;22.19;100.00;98170.03;4364549;32;20396;-69
2022/08/15 02:45:37;;;;;;;14.57;10.32;;;;;;;22.13;100.00;98136.59;4374098;32;20079;-69
2022/08/15 02:48:06;;;;;;;13.70;9.23;;;;;;;22.33;100.00;98171.63;4369285;32;20150;-69
2022/08/15 02:50:35;;;;;;;14.40;9.35;;;;;;;22.33;100.00;98163.41;4371542;32;20053;-69
2022/08/15 02:53:16;;;;;;;20.67;9.65;;;;;;;22.14;100.00;98168.31;4371122;32;20078;-69
2022/08/15 02:55:46;;;;;;;17.02;10.45;;;;;;;22.23;100.00;98167.41;4369742;32;20031;-70
2022/08/15 02:58:14;;;;;;;14.57;10.55;;;;;;;21.76;100.00;98147.66;4370828;32;20062;-69
2022/08/15 03:00:44;;;;;;;13.90;9.57;;;;;;;21.93;100.00;98176.72;4373419;32;20053;-69
2022/08/15 03:03:14;;;;;;;20.62;10.52;;;;;;;21.71;100.00;98145.12;4376869;32;20055;-69
2022/08/15 03:05:46;;;;;;;14.25;10.43;;;;;;;21.83;100.00;98185.44;4384340;32;20027;-70
2022/08/15 03:08:13;;;;;;;14.65;10.95;;;;;;;21.62;100.00;98191.06;4384777;32;20051;-69
2022/08/15 03:10:41;;;;;;;20.12;10.60;;;;;;;21.86;100.00;98184.75;4362333;32;20032;-69
2022/08/15 03:13:11;;;;;;;17.77;11.23;;;;;;;21.89;100.00;98183.25;4354799;32;20397;-69
2022/08/15 03:15:48;;;;;;;;;;;;;;;21.96;100.00;98183.47;4357214;32;20063;-71
2022/08/15 03:18:15;;;;;;;17.35;10.88;;;;;;;21.98;100.00;98183.91;4369824;32;19940;-69
2022/08/15 03:20:45;;;;;;;17.27;11.18;;;;;;;21.85;100.00;98177.66;4371198;32;20040;-69
2022/08/15 03:23:12;;;;;;;13.68;11.35;;;;;;;21.93;100.00;98189.63;4366978;32;20032;-71
2022/08/15 03:25:44;;;;;;;14.40;10.75;;;;;;;22.17;100.00;98177.81;4363939;32;20049;-69
2022/08/15 03:28:24;;;;;;;29.30;11.60;;;;;;;22.20;100.00;98190.03;4354731;32;20065;-70
2022/08/15 03:30:51;;;;;;;23.67;11.85;;;;;;;22.05;100.00;98186.06;4352674;32;20044;-71
2022/08/15 03:33:17;;;;;;;22.98;11.77;;;;;;;22.17;100.00;98182.50;4351731;32;20054;-71
2022/08/15 03:35:49;;;;;;;22.08;13.52;;;;;;;21.93;100.00;98184.94;4363320;32;20059;-71
2022/08/15 03:38:16;;;;;;;14.50;11.57;;;;;;;21.99;100.00;98180.03;4369194;32;20048;-71
2022/08/15 03:40:45;;;;;;;20.48;12.13;;;;;;;21.84;100.00;98189.75;4371061;32;20035;-71
2022/08/15 03:43:21;;;;;;;18.20;11.12;;;;;;;21.70;100.00;98149.03;4360838;32;20043;-71
2022/08/15 03:45:53;;;;;;;16.23;10.68;;;;;;;21.93;100.00;98195.13;4372926;32;20077;-70
2022/08/15 03:48:24;;;;;;;26.62;12.02;;;;;;;21.65;100.00;98193.13;4368513;32;20043;-70
2022/08/15 03:50:52;;;;;;;23.77;12.35;;;;;;;21.96;100.00;98199.91;4337761;33;20050;-70
2022/08/15 03:53:20;;;;;;;15.88;11.57;;;;;;;21.86;100.00;98194.87;4340355;33;20198;-70
2022/08/15 03:55:46;;;;;;;21.95;11.90;;;;;;;21.77;100.00;98197.78;4339612;33;20460;-70
2022/08/15 03:58:14;;;;;;;17.50;11.57;;;;;;;21.85;100.00;98157.69;4340279;33;20101;-70
2022/08/15 04:00:48;;;;;;;16.45;12.00;;;;;;;21.75;100.00;98154.28;4339786;33;20077;-71
2022/08/15 04:03:18;;;;;;;18.42;11.75;;;;;;;22.10;100.00;98183.91;4340454;33;20077;-70
2022/08/15 04:05:51;;;;;;;18.10;11.57;;;;;;;22.19;100.00;98183.75;4341127;33;20386;-70
2022/08/15 04:08:22;;;;;;;21.75;11.43;;;;;;;22.03;100.00;98150.78;4340825;33;20047;-72
2022/08/15 04:10:51;;;;;;;19.65;12.30;;;;;;;21.79;100.00;98153.59;4338765;33;20362;-72
2022/08/15 04:13:24;;;;;;;21.15;11.38;;;;;;;22.24;100.00;98188.19;4325602;33;20052;-70
2022/08/15 04:15:52;;;;;;;17.52;11.40;;;;;;;22.20;100.00;98179.84;4326281;33;20058;-70
2022/08/15 04:18:20;;;;;;;23.45;10.68;;;;;;;22.13;100.00;98183.19;4322908;33;20061;-71
2022/08/15 04:20:48;;;;;;;19.23;11.77;;;;;;;21.99;100.00;98140.87;4327282;33;20049;-71
2022/08/15 04:23:14;;;;;;;20.42;11.82;;;;;;;22.44;100.00;98176.25;4343769;32;20091;-71
2022/08/15 04:25:43;;;;;;;25.42;11.30;;;;;;;22.48;100.00;98182.66;4350736;32;20069;-71
2022/08/15 04:28:14;;;;;;;16.08;10.60;;;;;;;22.34;100.00;98175.94;4344786;32;20061;-71
2022/08/15 04:30:43;;;;;;;19.20;11.02;;;;;;;22.38;100.00;98174.13;4344707;32;20041;-72
2022/08/15 04:33:15;;;;;;;15.23;10.32;;;;;;;22.54;100.00;98168.69;4343130;32;20074;-71
2022/08/15 04:35:46;;;;;;;17.33;11.55;;;;;;;22.43;100.00;98160.97;4347641;32;21356;-71
2022/08/15 04:38:14;;;;;;;15.15;10.68;;;;;;;22.47;100.00;98161.84;4344977;32;20066;-71
2022/08/15 04:40:43;;;;;;;17.35;11.15;;;;;;;22.47;100.00;98159.09;4332031;33;20103;-71
2022/08/15 04:43:11;;;;;;;22.80;11.65;;;;;;;22.35;100.00;98128.97;4331574;33;20045;-71
2022/08/15 04:45:40;;;;;;;20.25;11.98;;;;;;;22.47;100.00;98163.81;4312233;33;20041;-73
2022/08/15 04:48:08;;;;;;;13.48;10.63;;;;;;;22.35;100.00;98163.84;4311246;33;20044;-71
2022/08/15 04:50:37;;;;;;;18.40;12.52;;;;;;;22.34;100.00;98164.97;4294394;33;20073;-72
2022/08/15 04:53:09;;;;;;;17.55;10.85;;;;;;;22.39;100.00;98168.28;4294554;33;20087;-71
2022/08/15 04:55:41;;;;;;;24.15;11.68;;;;;;;22.58;100.00;98158.63;4297814;33;20107;-71
2022/08/15 04:58:10;;;;;;;15.02;10.68;;;;;;;22.65;100.00;98161.53;4265867;33;20175;-75
2022/08/15 05:00:40;;;;;;;19.12;11.52;;;;;;;22.65;100.00;98158.78;4253595;33;20113;-71
2022/08/15 05:03:16;;;;;;;21.07;11.17;;;;;;;22.73;100.00;98163.31;4254782;33;20586;-71
2022/08/15 05:05:46;;;;;;;19.83;11.27;;;;;;;22.39;100.00;98116.19;4238317;33;20098;-71
2022/08/15 05:08:13;;;;;;;18.05;11.15;;;;;;;22.64;100.00;98173.66;4235267;33;20061;-71
2022/08/15 05:10:40;;;;;;;16.35;10.45;;;;;;;22.84;100.00;98167.13;4239212;33;20375;-70
2022/08/15 05:13:20;;;;;;;21.60;11.35;;;;;;;22.84;100.00;98166.34;4255550;33;20067;-73
2022/08/15 05:15:48;;;;;;;15.75;11.70;;;;;;;22.85;100.00;98163.25;4252198;33;20140;-74
2022/08/15 05:18:15;;;;;;;20.37;11.32;;;;;;;22.41;100.00;98108.41;4266437;33;20049;-70
2022/08/15 05:20:41;;;;;;;14.60;11.48;;;;;;;22.84;100.00;98167.13;4267451;33;20406;-71
2022/08/15 05:23:12;;;;;;;20.50;12.10;;;;;;;22.70;100.00;98127.56;4280723;33;20047;-70
2022/08/15 05:25:43;;;;;;;13.13;11.15;;;;;;;22.87;100.00;98162.13;4263602;33;20050;-71
2022/08/15 05:28:12;;;;;;;18.55;11.45;;;;;;;23.01;100.00;98176.19;4265318;33;20191;-71
2022/08/15 05:30:40;;;;;;;21.55;12.55;;;;;;;23.20;100.00;98162.59;4299161;33;20033;-71
2022/08/15 05:33:12;;;;;;;20.95;11.80;;;;;;;22.59;100.00;98132.75;4302105;33;20071;-72
2022/08/15 05:35:42;;;;;;;15.00;11.77;;;;;;;22.76;100.00;98162.63;4301096;33;20090;-73
2022/08/15 05:38:22;;;;;;;20.02;10.80;;;;;;;22.99;100.00;98157.34;4300680;33;20078;-71
2022/08/15 05:41:08;;;;;;;16.60;11.68;;;;;;;22.91;100.00;98135.53;4299900;33;20067;-72
2022/08/15 05:44:07;;;;;;;21.60;11.82;;;;;;;23.06;100.00;98134.75;4299076;33;20104;-71
2022/08/15 05:46:46;;;;;;;19.30;11.65;;;;;;;23.33;100.00;98165.25;4262520;33;20032;-72
2022/08/15 05:49:33;;;;;;;18.30;13.02;;;;;;;23.18;100.00;98164.91;4315544;33;20110;-70
2022/08/15 05:52:13;;;;;;;20.27;11.80;;;;;;;23.14;100.00;98175.00;4317085;33;20178;-74
2022/08/15 05:54:52;;;;;;;18.10;13.02;;;;;;;23.37;100.00;98171.59;4320536;33;20048;-71
2022/08/15 05:57:58;;;;;;;18.58;12.05;;;;;;;23.29;100.00;98142.38;4310016;33;20060;-71
2022/08/15 06:00:27;;;;;;;20.60;12.82;;;;;;;23.47;100.00;98168.34;4313263;33;20126;-71
2022/08/15 06:03:23;;;;;;;16.30;11.32;;;;;;;23.34;100.00;98159.41;4331760;32;20495;-71
2022/08/15 06:05:53;;;;;;;14.07;11.38;;;;;;;23.36;100.00;98159.03;4353664;32;20073;-72
2022/08/15 06:08:24;;;;;;;13.73;11.12;;;;;;;23.42;100.00;98160.34;4355922;32;20032;-72
2022/08/15 06:11:04;;;;;;;15.27;10.65;;;;;;;23.40;100.00;98132.44;4369683;32;20044;-70
2022/08/15 06:13:58;;;;;;;15.48;10.77;;;;;;;23.55;100.00;98161.84;4371045;32;20055;-71
2022/08/15 06:16:33;;;;;;;20.40;12.45;;;;;;;23.40;100.00;98165.41;4354875;32;20052;-71
2022/08/15 06:19:05;;;;;;;22.17;10.85;;;;;;;23.53;100.00;98175.16;4350904;32;20066;-71
2022/08/15 06:22:02;;;;;;;21.20;11.27;;;;;;;23.21;100.00;98131.25;4362425;32;20061;-72
2022/08/15 06:24:48;;;;;;;25.83;9.93;;;;;;;23.50;100.00;98148.41;4353389;32;20073;-71
2022/08/15 06:27:52;;;;;;;20.95;11.12;;;;;;;23.79;100.00;98186.69;4356058;32;20101;-72
2022/08/15 06:30:31;;;;;;;13.73;10.48;;;;;;;24.02;100.00;98187.63;4352214;32;20057;-70
2022/08/15 06:33:28;;;;;;;15.30;11.15;;;;;;;24.20;100.00;98179.75;4353911;32;20047;-72
2022/08/15 06:36:10;;;;;;;14.10;10.38;;;;;;;24.07;100.00;98172.81;4327296;33;20062;-72
2022/08/15 06:38:52;;;;;;;13.65;10.93;;;;;;;23.91;100.00;98173.66;4329392;33;20090;-72
2022/08/15 06:41:30;;;;;;;17.05;10.45;;;;;;;24.11;100.00;98168.19;4336432;33;20040;-72
2022/08/15 06:43:59;;;;;;;13.48;9.70;;;;;;;24.18;100.00;98170.28;4334405;33;20448;-71
2022/08/15 06:46:33;;;;;;;13.65;9.63;;;;;;;24.13;100.00;98179.63;4325943;33;20040;-72
2022/08/15 06:49:05;;;;;;;15.15;10.75;;;;;;;24.26;100.00;98186.56;4339503;32;20040;-72
2022/08/15 06:51:37;;;;;;;15.57;11.05;;;;;;;24.15;100.00;98177.31;4338534;33;20193;-72
2022/08/15 06:54:14;;;;;;;15.73;11.50;;;;;;;23.68;100.00;98191.97;4337418;33;20067;-73
2022/08/15 06:56:53;;;;;;;15.18;11.55;;;;;;;23.90;100.00;98155.59;4340049;33;20068;-72
2022/08/15 06:59:44;;;;;;;16.92;12.20;;;;;;;23.94;100.00;98170.19;4356248;32;20042;-71
2022/08/15 07:02:44;;;;;;;16.65;10.10;;;;;;;23.99;100.00;98196.59;4354095;32;20051;-73
2022/08/15 07:05:24;;;;;;;18.35;11.43;;;;;;;23.89;100.00;98192.47;4353587;32;20032;-74
2022/08/15 07:07:55;;;;;;;14.45;11.43;;;;;;;23.45;100.00;98195.34;4343694;32;20039;-71
2022/08/15 07:10:27;;;;;;;19.48;10.15;;;;;;;23.63;100.00;98192.22;4339210;33;20037;-72
2022/08/15 07:13:00;;;;;;;17.87;10.82;;;;;;;23.39;100.00;98169.28;4338448;33;20047;-71
2022/08/15 07:15:46;;;;;;;11.95;9.35;;;;;;;23.50;100.00;98197.84;4330779;33;20058;-70
2022/08/15 07:18:37;;;;;;;25.73;10.65;;;;;;;23.80;100.00;98200.06;4324477;33;20435;-73
2022/08/15 07:21:05;;;;;;;;;;;;;;;23.71;100.00;98197.53;4326253;33;20028;-72
2022/08/15 07:23:34;;;;;;;17.00;9.15;;;;;;;23.72;100.00;98193.63;4338472;33;19935;-71
2022/08/15 07:26:10;;;;;;;12.73;9.50;;;;;;;23.85;100.00;98183.34;4339079;33;20377;-70
2022/08/15 07:28:49;;;;;;;11.75;8.90;;;;;;;23.78;100.00;98188.66;4339714;33;20047;-71
2022/08/15 07:31:19;;;;;;;15.85;8.88;;;;;;;23.86;100.00;98200.66;4365771;32;20210;-71
2022/08/15 07:33:50;;;;;;;8.93;8.13;;;;;;;23.89;100.00;98175.97;4369201;32;20047;-72
2022/08/15 07:36:23;;;;;;;12.60;9.80;;;;;;;23.85;100.00;98188.84;4371912;32;21000;-72
2022/08/15 07:38:52;;;;;;;13.93;8.80;;;;;;;23.80;100.00;98155.31;4372134;32;20065;-72
2022/08/15 07:41:28;;;;;;;16.33;8.75;;;;;;;24.12;100.00;98186.28;4324772;33;20032;-73
2022/08/15 07:44:20;;;;;;;15.95;9.27;;;;;;;23.86;100.00;98201.44;4323309;33;20125;-72
2022/08/15 07:47:02;;;;;;;10.95;8.90;;;;;;;23.75;100.00;98153.66;4323772;33;20078;-73
2022/08/15 07:49:32;;;;;;;14.13;8.25;;;;;;;23.63;100.00;98164.75;4325754;33;20064;-73
2022/08/15 07:52:06;;;;;;;18.00;8.45;;;;;;;24.08;100.00;98199.16;4323596;33;20040;-73
2022/08/15 07:54:36;;;;;;;14.98;9.13;;;;;;;24.38;100.00;98201.34;4325577;33;20040;-73
2022/08/15 07:57:06;;;;;;;16.48;8.13;;;;;;;24.12;100.00;98200.03;4309921;33;20032;-73
2022/08/15 07:59:36;;;;;;;12.65;8.60;;;;;;;24.29;100.00;98196.84;4315756;33;20048;-72
2022/08/15 08:02:09;;;;;;;;;;;;;;;23.77;100.00;98167.81;4326735;33;20465;-72
2022/08/15 08:04:36;;;;;;;12.35;7.95;;;;;;;23.48;100.00;98189.13;4325482;33;19975;-72
2022/08/15 08:07:20;;;;;;;15.07;8.15;;;;;;;23.90;100.00;98188.56;4312067;33;20056;-77
2022/08/15 08:09:55;;;;;;;10.20;8.02;;;;;;;24.17;100.00;98199.72;4321267;33;20321;-70
2022/08/15 08:12:42;;;;;;;11.00;8.70;;;;;;;24.07;100.00;98200.31;4343590;32;20473;-70
2022/08/15 08:15:18;;;;;;;8.75;7.72;;;;;;;24.00;100.00;98169.94;4368657;32;20093;-71
2022/08/15 08:17:45;;;;;;;10.43;7.70;;;;;;;23.96;100.00;98196.53;4365068;32;20159;-73
2022/08/15 08:20:23;;;;;;;16.70;7.53;;;;;;;24.00;100.00;98198.22;4369467;32;20047;-71
2022/08/15 08:23:01;;;;;;;11.30;7.03;;;;;;;23.94;100.00;98208.69;4366883;32;20073;-71
2022/08/15 08:25:40;;;;;;;10.65;7.45;;;;;;;24.17;100.00;98204.44;4369181;32;20117;-72
2022/08/15 08:28:27;;;;;;;8.00;6.47;;;;;;;24.11;100.00;98214.94;4372645;32;20030;-70
2022/08/15 08:31:02;;;;;;;16.12;8.02;;;;;;;24.15;100.00;98204.03;4368685;32;20154;-70
2022/08/15 08:33:28;;;;;;;8.10;6.12;;;;;;;24.18;100.00;98204.09;4367518;32;20052;-70
2022/08/15 08:36:06;;;;;;;7.93;6.18;;;;;;;23.92;100.00;98172.50;4368137;32;20116;-70
2022/08/15 08:38:44;;;;;;;9.65;6.40;;;;;;;24.13;100.00;98168.62;4370701;32;20247;-71
2022/08/15 08:41:34;;;;;;;12.20;7.30;;;;;;;24.45;100.00;98207.78;4369734;32;20154;-72
2022/08/15 08:44:07;;;;;;;6.97;5.90;;;;;;;24.32;100.00;98175.28;4366716;32;20461;-70
2022/08/15 08:46:59;;;;;;;10.18;6.05;;;;;;;24.60;100.00;98211.66;4369482;32;20474;-70
2022/08/15 08:49:45;;;;;;;7.10;5.90;;;;;;;24.71;100.00;98213.81;4362421;32;20047;-70
2022/08/15 08:52:26;;;;;;;11.00;6.15;;;;;;;24.73;100.00;98201.28;4368882;32;20044;-74
2022/08/15 08:55:10;;;;;;;16.10;8.65;;;;;;;24.75;100.00;98204.47;4370992;32;20104;-72
2022/08/15 08:57:50;;;;;;;10.77;6.07;;;;;;;25.23;100.00;98206.91;4368625;32;20065;-73
2022/08/15 09:00:20;;;;;;;12.07;6.43;;;;;;;25.22;100.00;98202.53;4371226;32;20056;-70
2022/08/15 09:02:54;;;;;;;7.50;6.70;;;;;;;25.12;100.00;98200.41;4370127;32;20439;-71
2022/08/15 09:05:26;;;;;;;9.23;6.62;;;;;;;24.96;100.00;98168.28;4335700;33;20438;-73
2022/08/15 09:08:01;;;;;;;10.82;6.45;;;;;;;25.26;100.00;98195.16;4337076;33;20825;-70
2022/08/15 09:10:32;;;;;;;6.70;6.00;;;;;;;25.28;100.00;98198.34;4337714;33;20507;-71
2022/08/15 09:15:50;;;;;;;10.02;5.75;;;;;;;25.29;100.00;98199.12;4320643;33;20045;-69
2022/08/15 09:18:36;;;;;;;9.50;5.78;;;;;;;25.30;100.00;98201.53;4316433;33;20064;-71
2022/08/15 09:21:05;;;;;;;6.50;5.68;;;;;;;25.35;100.00;98187.47;4319245;33;20051;-70
2022/08/15 09:23:38;;;;;;;6.20;5.62;;;;;;;25.53;100.00;98206.25;4315260;33;20058;-71
2022/08/15 09:26:33;;;;;;;11.38;6.30;;;;;;;25.63;100.00;98202.84;4284027;33;20118;-70
2022/08/15 09:29:29;;;;;;;12.15;6.97;;;;;;;25.84;100.00;98201.56;4285331;33;20054;-69
2022/08/15 09:32:14;;;;;;;8.13;5.68;;;;;;;25.77;100.00;98206.97;4245932;33;20065;-74
2022/08/15 09:35:07;;;;;;;8.07;5.40;;;;;;;25.53;100.00;98171.22;4250354;33;20034;-72
2022/08/15 09:37:43;;;;;;;9.40;5.62;;;;;;;25.71;100.00;98201.00;4250186;33;20038;-70
2022/08/15 09:40:32;;;;;;;6.55;4.85;;;;;;;25.72;100.00;98197.88;4251287;33;20030;-72
2022/08/15 09:43:25;;;;;;;7.68;5.50;;;;;;;25.66;100.00;98191.09;4256540;33;20404;-71
2022/08/15 09:45:57;;;;;;;12.05;6.55;;;;;;;25.62;100.00;98195.72;4262445;33;20044;-72
2022/08/15 09:48:40;;;;;;;8.40;5.05;;;;;;;25.85;100.00;98195.69;4263394;33;20075;-71
2022/08/15 09:51:40;;;;;;;4.82;4.37;;;;;;;25.72;100.00;98153.75;4297568;33;20122;-73
2022/08/15 09:54:18;;;;;;;5.10;4.37;;;;;;;25.72;100.00;98186.84;4308649;33;20111;-73
2022/08/15 09:56:44;;;;;;;9.93;5.00;;;;;;;25.92;100.00;98176.47;4320740;33;20036;-70
2022/08/15 09:59:14;;;;;;;6.50;3.97;;;;;;;25.98;100.00;98177.00;4350095;32;20079;-70
2022/08/15 10:01:48;;;;;;;5.82;4.43;;;;;;;26.22;100.00;98177.69;4344536;32;20381;-73
2022/08/15 10:04:18;;;;;;;7.95;4.20;;;;;;;26.02;100.00;98141.97;4372671;32;20078;-69
2022/08/15 10:07:16;;;;;;;4.05;3.72;;;;;;;26.11;100.00;98144.44;4372800;32;20020;-70
2022/08/15 10:10:09;;;;;;;4.50;3.72;;;;;;;26.43;100.00;98177.16;4373999;32;20059;-70
2022/08/15 10:12:37;;;;;;;5.53;3.67;;;;;;;26.35;100.00;98179.03;4371929;32;20094;-71
2022/08/15 10:15:25;;;;;;;4.50;4.10;;;;;;;26.40;100.00;98175.94;4362417;32;20098;-69
2022/08/15 10:17:52;;;;;;;6.45;4.60;;;;;;;26.46;100.00;98176.41;4372134;32;20039;-70
2022/08/15 10:20:19;;;;;;;4.07;3.67;;;;;;;26.57;100.00;98155.22;4373399;32;20043;-80
2022/08/15 10:22:53;;;;;;;8.43;4.15;;;;;;;26.32;100.00;98157.69;4358464;32;20036;-77
2022/08/15 10:25:22;;;;;;;4.12;3.83;;;;;;;26.45;100.00;98174.81;4368366;32;20034;-71
2022/08/15 10:28:13;;;;;;;4.82;3.78;;;;;;;26.42;100.00;98176.38;4353830;32;20213;-72
2022/08/15 10:31:05;;;;;;;5.05;3.97;;;;;;;26.10;100.00;98143.66;4353547;32;20060;-71
2022/08/15 10:33:32;;;;;;;5.23;3.23;;;;;;;26.68;100.00;98160.09;4354486;32;20040;-76
2022/08/15 10:36:24;;;;;;;4.68;3.78;;;;;;;26.30;100.00;98129.69;4341405;33;20707;-71
2022/08/15 10:38:51;;;;;;;11.85;4.25;;;;;;;26.68;100.00;98171.94;4336826;33;20418;-71
2022/08/15 10:41:31;;;;;;;5.18;3.80;;;;;;;26.85;100.00;98169.75;4334541;33;20066;-75
2022/08/15 10:44:32;;;;;;;3.50;3.15;;;;;;;27.09;100.00;98169.19;4326973;33;20041;-70
2022/08/15 10:47:05;;;;;;;3.65;3.30;;;;;;;26.58;100.00;98122.91;4337913;33;20052;-76
2022/08/15 10:49:57;;;;;;;7.00;3.50;;;;;;;26.76;100.00;98154.28;4334412;33;20812;-71
2022/08/15 10:52:42;;;;;;;;;;;;;;;27.32;100.00;98155.19;4327068;33;20071;-75
2022/08/15 10:55:12;;;;;;;3.75;3.45;;;;;;;27.70;100.00;98152.31;4342300;33;19943;-71
2022/08/15 10:57:48;;;;;;;8.48;3.72;;;;;;;27.35;100.00;98118.50;4341960;33;20053;-71
2022/08/15 11:00:37;;;;;;;4.93;3.67;;;;;;;27.17;100.00;98143.22;4341690;33;20178;-75
2022/08/15 11:03:11;;;;;;;4.78;4.30;;;;;;;27.38;100.00;98133.53;4340753;33;20048;-71
2022/08/15 11:05:37;;;;;;;7.95;4.45;;;;;;;27.68;100.00;98130.56;4346532;33;20049;-71
2022/08/15 11:08:12;;;;;;;8.80;4.53;;;;;;;27.94;100.00;98153.66;4371279;32;20040;-71
2022/08/15 11:10:39;;;;;;;4.20;3.67;;;;;;;28.41;100.00;98146.31;4374761;32;20035;-71
2022/08/15 11:13:12;;;;;;;4.37;3.80;;;;;;;27.98;100.00;98140.59;4374554;32;20456;-71
2022/08/15 11:15:54;;;;;;;6.05;4.15;;;;;;;27.63;100.00;98116.28;4339752;33;20048;-76
2022/08/15 11:18:27;;;;;;;6.70;4.30;;;;;;;27.46;100.00;98137.94;4341244;33;20040;-71
2022/08/15 11:21:12;;;;;;;6.75;4.28;;;;;;;27.49;100.00;98103.97;4310924;33;20042;-70
2022/08/15 11:23:42;;;;;;;8.00;4.70;;;;;;;27.16;100.00;98135.31;4282072;33;20046;-71
2022/08/15 11:26:12;;;;;;;5.03;4.22;;;;;;;27.40;100.00;98138.69;4282918;33;20047;-71
2022/08/15 11:28:41;;;;;;;8.13;4.78;;;;;;;27.78;100.00;98108.88;4289386;33;20040;-71
2022/08/15 11:31:15;;;;;;;6.50;5.47;;;;;;;27.98;100.00;98101.88;4291406;33;20063;-75
2022/08/15 11:33:54;;;;;;;8.13;5.28;;;;;;;28.74;100.00;98133.37;4282289;33;20100;-71
2022/08/15 11:36:24;;;;;;;6.03;4.82;;;;;;;28.71;100.00;98141.69;4283027;33;20033;-71
2022/08/15 11:39:00;;;;;;;5.18;4.75;;;;;;;28.43;100.00;98107.16;4282208;33;20025;-71
2022/08/15 11:41:31;;;;;;;7.65;5.82;;;;;;;28.72;100.00;98107.25;4293820;33;20065;-71
2022/08/15 11:44:00;;;;;;;6.05;5.53;;;;;;;29.23;100.00;98128.28;4297269;33;20055;-71
2022/08/15 11:46:27;;;;;;;11.70;5.72;;;;;;;29.45;100.00;98133.81;4302534;33;20033;-72
2022/08/15 11:49:08;;;;;;;7.97;6.05;;;;;;;29.10;100.00;98136.19;4311185;33;20082;-72
2022/08/15 11:51:40;;;;;;;7.40;6.63;;;;;;;30.00;100.00;98129.75;4321669;33;20274;-71
2022/08/15 11:54:12;;;;;;;17.83;5.85;;;;;;;30.09;100.00;98098.78;4343719;33;20171;-71
2022/08/15 11:57:01;;;;;;;5.80;5.30;;;;;;;30.50;100.00;98106.53;4362939;32;20077;-73